createdAt,value
2022-08-09T00:00:00.121Z,11.10
2022-08-09T00:06:18.497Z,7.65
2022-08-09T00:10:35.604Z,6.25
2022-08-09T00:15:58.790Z,9.80
2022-08-09T00:21:05.116Z,8.47
2022-08-09T00:26:11.351Z,10.00
2022-08-09T00:31:57.140Z,9.60
2022-08-09T00:36:37.151Z,10.07
2022-08-09T00:44:15.930Z,8.13
2022-08-09T00:47:05.635Z,9.00
2022-08-09T00:52:17.304Z,7.68
2022-08-09T00:57:33.897Z,10.07
2022-08-09T01:02:43.095Z,8.35
2022-08-09T01:08:11.495Z,9.70
2022-08-09T01:13:59.586Z,8.40
2022-08-09T01:19:39.999Z,10.63
2022-08-09T01:25:07.724Z,11.73
2022-08-09T01:30:33.747Z,7.70
2022-08-09T01:36:03.943Z,8.73
2022-08-09T01:41:14.130Z,7.80
2022-08-09T01:46:24.790Z,7.85
2022-08-09T01:51:32.174Z,8.25
2022-08-09T01:56:39.718Z,10.25
2022-08-09T02:01:59.442Z,7.90
2022-08-09T02:07:15.405Z,10.20
2022-08-09T02:12:23.614Z,8.52
2022-08-09T02:18:09.300Z,8.52
2022-08-09T02:22:58.074Z,7.22
2022-08-09T02:28:09.989Z,8.18
2022-08-09T02:33:18.617Z,7.00
2022-08-09T02:38:28.799Z,7.85
2022-08-09T02:43:42.556Z,7.95
2022-08-09T02:49:06.075Z,9.27
2022-08-09T02:54:16.060Z,8.00
2022-08-09T02:59:26.634Z,8.03
2022-08-09T03:04:40.966Z,7.82
2022-08-09T03:09:56.301Z,8.70
2022-08-09T03:15:00.071Z,8.50
2022-08-09T03:20:11.258Z,7.95
2022-08-09T03:25:26.851Z,8.47
2022-08-09T03:30:38.133Z,10.85
2022-08-09T03:36:11.237Z,7.85
2022-08-09T03:41:05.130Z,8.75
2022-08-09T03:46:20.084Z,8.57
2022-08-09T03:51:57.792Z,9.53
2022-08-09T03:56:54.929Z,10.27
2022-08-09T04:02:01.748Z,8.25
2022-08-09T04:07:05.129Z,7.55
2022-08-09T04:12:11.955Z,9.00
2022-08-09T04:17:33.078Z,10.57
2022-08-09T04:22:36.297Z,9.45
2022-08-09T04:27:49.021Z,7.95
2022-08-09T04:32:54.215Z,7.53
2022-08-09T04:37:57.058Z,8.20
2022-08-09T04:42:59.745Z,7.23
2022-08-09T04:48:07.974Z,7.50
2022-08-09T04:53:13.898Z,8.20
2022-08-09T04:58:16.751Z,8.60
2022-08-09T05:03:40.190Z,8.32
2022-08-09T05:08:43.881Z,7.50
2022-08-09T05:13:50.656Z,6.65
2022-08-09T05:18:59.902Z,7.55
2022-08-09T05:24:04.661Z,8.15
2022-08-09T05:29:17.464Z,7.88
2022-08-09T05:34:20.782Z,7.57
2022-08-09T05:39:28.872Z,7.95
2022-08-09T05:44:34.804Z,7.78
2022-08-09T05:50:25.211Z,6.93
2022-08-09T05:55:03.107Z,6.97
2022-08-09T06:00:11.286Z,8.47
2022-08-09T06:05:17.204Z,10.20
2022-08-09T06:10:20.266Z,7.90
2022-08-09T06:15:23.120Z,8.65
2022-08-09T06:20:30.203Z,6.53
2022-08-09T06:25:34.466Z,10.17
2022-08-09T06:30:37.370Z,5.53
2022-08-09T06:35:57.726Z,8.05
2022-08-09T06:41:01.089Z,4.63
2022-08-09T06:46:11.015Z,5.75
2022-08-09T06:51:16.508Z,8.87
2022-08-09T06:56:19.550Z,5.47
2022-08-09T07:01:24.156Z,5.40
2022-08-09T07:06:30.742Z,4.75
2022-08-09T07:11:52.155Z,7.07
2022-08-09T07:16:58.538Z,5.00
2022-08-09T07:22:02.110Z,5.75
2022-08-09T07:27:15.486Z,5.68
2022-08-09T07:32:32.273Z,4.82
2022-08-09T07:37:43.839Z,5.20
2022-08-09T07:42:54.520Z,7.23
2022-08-09T07:48:01.712Z,5.93
2022-08-09T07:53:08.309Z,4.18
2022-08-09T07:58:13.126Z,6.15
2022-08-09T08:03:16.322Z,5.47
2022-08-09T08:09:01.359Z,5.23
2022-08-09T08:13:56.525Z,5.75
2022-08-09T08:19:02.628Z,7.15
2022-08-09T08:24:11.723Z,5.03
2022-08-09T08:29:15.421Z,5.35
2022-08-09T08:34:25.409Z,5.53
2022-08-09T08:39:28.772Z,5.75
2022-08-09T08:44:36.691Z,4.72
2022-08-09T08:49:48.272Z,3.63
2022-08-09T08:55:01.298Z,4.38
2022-08-09T09:00:20.484Z,4.27
2022-08-09T09:05:32.908Z,3.67
2022-08-09T09:10:49.586Z,6.97
2022-08-09T09:15:54.570Z,3.60
2022-08-09T09:20:58.216Z,5.28
2022-08-09T09:26:11.892Z,3.60
2022-08-09T09:32:04.361Z,3.92
2022-08-09T09:36:51.010Z,4.15
2022-08-09T09:41:58.571Z,3.72
2022-08-09T09:47:17.063Z,4.40
2022-08-09T09:52:37.477Z,5.10
2022-08-09T09:58:19.137Z,4.63
2022-08-09T10:03:39.912Z,3.85
2022-08-09T10:08:54.735Z,4.57
2022-08-09T10:13:58.561Z,5.60
2022-08-09T10:19:08.418Z,5.23
2022-08-09T10:24:15.960Z,4.68
2022-08-09T10:30:22.784Z,5.72
2022-08-09T10:34:52.903Z,4.40
2022-08-09T10:39:57.005Z,4.00
2022-08-09T10:45:12.265Z,4.47
2022-08-09T10:51:04.174Z,3.80
2022-08-09T10:56:23.526Z,5.05
2022-08-09T11:03:17.901Z,4.35
2022-08-09T11:07:01.725Z,4.45
2022-08-09T11:12:30.265Z,4.70
2022-08-09T11:17:34.604Z,4.97
2022-08-09T11:22:44.960Z,6.72
2022-08-09T11:28:08.386Z,5.03
2022-08-09T11:33:17.828Z,4.72
2022-08-09T11:38:41.299Z,4.77
2022-08-09T11:43:49.295Z,5.30
2022-08-09T11:48:59.220Z,4.53
2022-08-09T11:54:28.581Z,3.60
2022-08-09T11:59:37.996Z,5.03
2022-08-09T12:04:41.678Z,4.47
2022-08-09T12:09:51.001Z,4.68
2022-08-09T12:15:07.838Z,5.28
2022-08-09T12:20:22.155Z,5.45
2022-08-09T12:25:36.210Z,4.45
2022-08-09T12:30:40.927Z,3.50
2022-08-09T12:35:44.336Z,4.25
2022-08-09T12:40:52.839Z,3.55
2022-08-09T12:45:59.979Z,4.95
2022-08-09T12:51:04.843Z,5.50
2022-08-09T12:56:43.061Z,5.17
2022-08-09T13:01:46.997Z,4.50
2022-08-09T13:06:54.093Z,4.22
2022-08-09T13:12:03.376Z,5.22
2022-08-09T13:17:16.172Z,3.78
2022-08-09T13:22:35.529Z,5.53
2022-08-09T13:27:56.032Z,7.07
2022-08-09T13:32:59.221Z,6.63
2022-08-09T13:38:03.400Z,4.50
2022-08-09T13:43:09.950Z,5.15
2022-08-09T13:48:14.780Z,3.10
2022-08-09T13:53:18.578Z,4.57
2022-08-09T13:58:21.307Z,3.85
2022-08-09T14:04:02.307Z,3.58
2022-08-09T14:08:47.099Z,3.40
2022-08-09T14:14:22.088Z,4.77
2022-08-09T14:19:12.900Z,4.50
2022-08-09T14:24:22.166Z,2.90
2022-08-09T14:30:34.408Z,3.97
2022-08-09T14:34:58.603Z,3.17
2022-08-09T14:40:01.530Z,3.80
2022-08-09T14:46:38.894Z,5.35
2022-08-09T14:50:33.219Z,3.50
2022-08-09T14:55:37.461Z,3.20
2022-08-09T15:00:48.191Z,4.18
2022-08-09T15:05:59.759Z,3.37
2022-08-09T15:11:07.292Z,3.65
2022-08-09T15:16:10.559Z,3.10
2022-08-09T15:21:55.733Z,3.67
2022-08-09T15:26:36.948Z,6.35
2022-08-09T15:31:48.670Z,3.73
2022-08-09T15:36:52.486Z,3.90
2022-08-09T15:41:55.419Z,4.20
2022-08-09T15:46:58.329Z,4.22
2022-08-09T15:52:04.113Z,4.10
2022-08-09T15:57:09.372Z,5.73
2022-08-09T16:02:13.371Z,3.60
2022-08-09T16:07:16.392Z,5.57
2022-08-09T16:12:20.109Z,4.35
2022-08-09T16:17:22.930Z,3.10
2022-08-09T16:22:31.869Z,6.10
2022-08-09T16:27:36.280Z,3.97
2022-08-09T16:32:57.870Z,4.90
2022-08-09T16:38:01.079Z,4.45
2022-08-09T16:43:04.800Z,3.78
2022-08-09T16:48:41.537Z,4.33
2022-08-09T16:53:34.133Z,3.40
2022-08-09T16:58:42.483Z,4.35
2022-08-09T17:03:53.596Z,7.15
2022-08-09T17:09:03.029Z,3.40
2022-08-09T17:14:26.038Z,4.03
2022-08-09T17:20:04.969Z,5.15
2022-08-09T17:24:56.062Z,3.00
2022-08-09T17:30:12.631Z,4.43
2022-08-09T17:35:17.658Z,4.50
2022-08-09T17:40:21.153Z,4.07
2022-08-09T17:45:45.536Z,3.28
2022-08-09T17:50:56.246Z,3.90
2022-08-09T17:56:03.310Z,4.50
2022-08-09T18:01:15.636Z,8.07
2022-08-09T18:06:32.471Z,7.00
2022-08-09T18:12:05.691Z,8.98
2022-08-09T18:17:01.910Z,5.25
2022-08-09T18:22:06.458Z,6.25
2022-08-09T18:28:02.438Z,4.93
2022-08-09T18:32:42.404Z,4.60
2022-08-09T18:37:48.819Z,4.30
2022-08-09T18:42:57.909Z,6.75
2022-08-09T18:48:02.917Z,5.50
2022-08-09T18:53:13.420Z,5.90
2022-08-09T18:58:22.088Z,5.30
2022-08-09T19:04:01.035Z,5.47
2022-08-09T19:09:02.602Z,8.02
2022-08-09T19:14:07.093Z,5.57
2022-08-09T19:19:23.613Z,5.80
2022-08-09T19:24:39.790Z,6.73
2022-08-09T19:30:23.790Z,6.75
2022-08-09T19:35:16.938Z,6.68
2022-08-09T19:40:20.427Z,6.15
2022-08-09T19:45:23.197Z,5.45
2022-08-09T19:50:49.207Z,5.17
2022-08-09T19:56:01.968Z,7.18
2022-08-09T20:01:11.501Z,8.32
2022-08-09T20:06:23.786Z,10.15
2022-08-09T20:11:33.835Z,9.10
2022-08-09T20:16:54.029Z,7.73
2022-08-09T20:22:00.082Z,7.68
2022-08-09T20:27:08.119Z,9.15
2022-08-09T20:32:30.393Z,8.32
2022-08-09T20:38:19.437Z,9.20
2022-08-09T20:43:00.201Z,10.87
2022-08-09T20:48:21.622Z,9.88
2022-08-09T20:53:35.330Z,11.27
2022-08-09T20:58:43.520Z,7.72
2022-08-09T21:05:48.546Z,7.38
2022-08-09T21:09:14.179Z,8.20
2022-08-09T21:14:19.328Z,10.20
2022-08-09T21:20:18.755Z,7.07
2022-08-09T21:25:05.323Z,8.50
2022-08-09T21:30:09.843Z,6.90
2022-08-09T21:35:13.592Z,8.70
2022-08-09T21:40:21.965Z,7.35
2022-08-09T21:45:32.861Z,9.80
2022-08-09T21:50:46.657Z,8.32
2022-08-09T21:55:53.948Z,7.38
2022-08-09T22:00:57.427Z,7.00
2022-08-09T22:06:00.373Z,8.10
2022-08-09T22:11:50.591Z,6.78
2022-08-09T22:16:26.064Z,7.00
2022-08-09T22:21:49.631Z,9.38
2022-08-09T22:26:53.670Z,7.10
2022-08-09T22:31:58.014Z,7.82
2022-08-09T22:37:01.066Z,9.30
2022-08-09T22:42:16.138Z,6.68
2022-08-09T22:48:12.671Z,7.75
2022-08-09T22:52:49.212Z,6.47
2022-08-09T22:58:00.532Z,7.55
2022-08-09T23:03:03.615Z,8.82
2022-08-09T23:08:34.371Z,8.38
2022-08-09T23:13:37.544Z,8.02
2022-08-09T23:18:45.295Z,6.00
2022-08-09T23:24:04.160Z,9.02
2022-08-09T23:29:14.018Z,8.48
2022-08-09T23:34:16.985Z,8.60
2022-08-09T23:39:19.715Z,10.55
2022-08-09T23:44:22.480Z,9.63
2022-08-09T23:49:26.291Z,10.63
2022-08-09T23:54:28.944Z,8.25
2022-08-09T23:59:50.604Z,7.50
